Portada
METAR-TAF:

METAR-TAF

Aeroports :

Al-Riyad, Aràbia Saudita

latitud: 24-43N, longitud: 046-44E, altitud: 635 m

Observació

L'informe es va fer fa 7 hores i 52 minuts, a les 11:00 UTC
Vent 9 kt del Nord
Temperatura 18°C
Humitat 22%
Pressió 1020 hPa
Visibilitat 10 km o més
sense núvols per sota de 1500 mi sense presència de cumulonimbus.

METAR: OERY 211100Z 35009KT CAVOK 18/M04 Q1020

Hora: 21:52 (18:52 UTC)

Pronòstic

L'informe es va fer fa 7 hores i 52 minuts, a les 11:00 UTC
Pronòstic vàlid del 21 a les 12 UTC al 22 a les 18 UTC
Vent 14 kt del Nord/Nord-Est
Visibilitat 10 km o més
sense núvols per sota de 1500 mi sense presència de cumulonimbus.
Evolucionant progressivament
l' 21 a les 18 UTC al 21 a les 20 UTC
Vent 3 kt amb direcció variable

TAF: OERY 211100Z 2112/2218 03014KT CAVOK BECMG 2118/2120 VRB03KT

Observacions i pronòstics meteorològics de més de 4000 aeroports (METAR i TAF).

Les estacions disponibles són els punts grocs i vermells al mapa.

Posi el ratolí al punt desitjat per veure el nom de l'estació.

Feu clic per veure les observacions i els pronòstics meteorològics.

Per canviar el mapa: feu clic els botons verds amb una creu de color negre per apropar; al botó verd amb un guió per allunyar la imatge; o en les fletxes verdes per a mapes adjacents.


METAR-TAF: